Time;durP1;ratioP1;P1;durP2;ratioP2;P2;SDS_P1;SDS_P2;PMS_P1;PMS_P2;Temp;Humidity;BMP_temperature;BMP_pressure;BME280_temperature;BME280_humidity;BME280_pressure;Samples;Min_cycle;Max_cycle;Signal;HPM_P1;HPM_P2
2023/04/08 00:00:37;;;;;;;3.97;3.33;;;7.70;99.90;;;;;;5074962;28;20426;-89
2023/04/08 00:03:13;;;;;;;3.00;2.80;;;7.40;99.90;;;;;;5074052;28;20384;-88
2023/04/08 00:05:52;;;;;;;3.33;2.90;;;7.30;99.90;;;;;;5074410;28;20400;-89
2023/04/08 00:08:31;;;;;;;3.03;2.83;;;7.20;99.90;;;;;;5074113;28;20396;-89
2023/04/08 00:11:09;;;;;;;3.00;2.70;;;7.10;99.90;;;;;;5075254;28;20384;-89
2023/04/08 00:13:35;;;;;;;3.00;2.80;;;7.20;99.90;;;;;;5093801;28;20455;-89
2023/04/08 00:16:10;;;;;;;2.65;2.45;;;7.30;99.90;;;;;;5085640;28;20399;-88
2023/04/08 00:18:44;;;;;;;3.20;2.90;;;7.20;99.90;;;;;;5095931;28;20398;-87
2023/04/08 00:21:19;;;;;;;3.33;2.70;;;7.20;99.90;;;;;;5074255;28;20872;-89
2023/04/08 00:23:48;;;;;;;3.10;2.90;;;7.30;99.90;;;;;;5078935;28;20419;-89
2023/04/08 00:26:23;;;;;;;6.00;3.40;;;7.30;99.90;;;;;;5073097;28;20461;-89
2023/04/08 00:29:18;;;;;;;3.90;3.53;;;7.40;99.90;;;;;;5073970;28;20459;-89
2023/04/08 00:31:56;;;;;;;3.80;3.40;;;7.30;99.90;;;;;;5071180;28;20388;-88
2023/04/08 00:34:33;;;;;;;4.50;4.10;;;7.30;99.90;;;;;;5073540;28;20392;-89
2023/04/08 00:37:09;;;;;;;4.25;3.90;;;7.30;99.90;;;;;;5073003;28;20426;-89
2023/04/08 00:39:53;;;;;;;4.18;3.88;;;7.30;99.90;;;;;;5073600;28;20386;-89
2023/04/08 00:45:18;;;;;;;4.80;4.40;;;7.30;99.90;;;;;;5074818;28;20478;-89
2023/04/08 00:47:52;;;;;;;5.05;4.65;;;7.30;99.90;;;;;;5073225;28;20395;-89
2023/04/08 00:50:36;;;;;;;4.80;4.40;;;7.10;99.90;;;;;;5073997;28;20388;-89
2023/04/08 00:53:12;;;;;;;5.22;4.82;;;7.00;99.90;;;;;;5076412;28;20392;-88
2023/04/08 00:55:40;;;;;;;5.13;4.73;;;7.10;99.90;;;;;;5078067;28;20387;-88
2023/04/08 00:58:17;;;;;;;5.05;4.65;;;7.10;99.90;;;;;;5090963;28;20384;-89
2023/04/08 01:01:16;;;;;;;4.90;4.50;;;8.50;99.90;;;;;;5075517;28;20942;-89
2023/04/08 01:04:22;;;;;;;5.50;5.00;;;7.00;99.90;;;;;;5073362;28;20431;-89
2023/04/08 01:07:16;;;;;;;4.80;4.40;;;7.00;99.90;;;;;;5073416;28;20392;-89
2023/04/08 01:10:22;;;;;;;5.30;4.90;;;7.00;99.90;;;;;;5071708;28;20384;-88
2023/04/08 01:13:17;;;;;;;5.45;4.95;;;6.90;99.90;;;;;;5072942;28;20419;-89
2023/04/08 01:15:49;;;;;;;5.40;5.00;;;6.90;99.90;;;;;;5074635;28;20478;-89
2023/04/08 01:18:20;;;;;;;5.15;4.70;;;7.00;99.90;;;;;;5073985;28;20396;-89
2023/04/08 01:20:51;;;;;;;5.40;4.90;;;6.80;99.90;;;;;;5072982;28;20463;-89
2023/04/08 01:23:46;;;;;;;5.30;4.80;;;6.70;99.90;;;;;;5073395;28;20384;-89
2023/04/08 01:26:21;;;;;;;5.10;4.60;;;7.30;99.90;;;;;;5081720;28;20436;-89
2023/04/08 01:28:57;;;;;;;5.05;4.65;;;6.80;99.90;;;;;;5095889;28;20449;-89
2023/04/08 01:31:25;;;;;;;5.00;4.50;;;6.50;99.90;;;;;;5094650;28;20402;-89
2023/04/08 01:34:01;;;;;;;4.95;4.45;;;6.60;99.90;;;;;;5079911;28;20390;-89
2023/04/08 01:36:47;;;;;;;4.60;4.20;;;7.20;99.90;;;;;;5076777;28;20484;-89
2023/04/08 01:39:20;;;;;;;4.90;4.50;;;6.50;99.90;;;;;;5075732;28;20491;-89
2023/04/08 01:41:53;;;;;;;4.97;4.57;;;6.50;99.90;;;;;;5076801;28;20387;-89
2023/04/08 01:44:32;;;;;;;5.20;4.78;;;6.80;99.90;;;;;;5076114;28;20380;-89
2023/04/08 01:47:06;;;;;;;4.75;4.28;;;6.40;99.90;;;;;;5076269;28;20901;-89
2023/04/08 01:49:36;;;;;;;4.57;4.17;;;6.30;99.90;;;;;;5075868;28;20523;-89
2023/04/08 01:52:04;;;;;;;4.90;4.40;;;7.40;99.90;;;;;;5076083;28;20419;-89
2023/04/08 01:54:39;;;;;;;5.20;4.70;;;6.30;99.90;;;;;;5076866;28;20881;-88
2023/04/08 01:57:26;;;;;;;5.90;5.40;;;7.40;99.90;;;;;;5075313;28;20419;-88
2023/04/08 02:00:19;;;;;;;5.78;5.28;;;6.10;99.90;;;;;;5076578;28;20398;-89
2023/04/08 02:02:49;;;;;;;6.53;5.90;;;6.20;99.90;;;;;;5077825;28;20796;-88
2023/04/08 02:05:22;;;;;;;5.20;4.70;;;6.30;99.90;;;;;;5090117;28;20442;-89
2023/04/08 02:07:54;;;;;;;5.90;5.40;;;6.20;99.90;;;;;;5093911;28;20388;-89
2023/04/08 02:10:23;;;;;;;4.93;4.53;;;6.40;99.90;;;;;;5093193;28;20410;-89
2023/04/08 02:13:06;;;;;;;5.28;4.78;;;6.60;99.90;;;;;;5094062;28;20367;-89
2023/04/08 02:15:40;;;;;;;4.82;4.43;;;8.20;99.90;;;;;;5110567;22;20458;-85
2023/04/08 02:18:15;;;;;;;5.63;4.95;;;6.60;99.90;;;;;;5095353;28;20370;-86
2023/04/08 02:20:49;;;;;;;5.90;5.40;;;6.60;99.90;;;;;;5076626;28;20374;-85
2023/04/08 02:23:23;;;;;;;5.25;4.75;;;6.70;99.90;;;;;;5094825;28;20382;-85
2023/04/08 02:25:50;;;;;;;5.90;5.40;;;6.70;99.90;;;;;;5076761;28;20480;-84
2023/04/08 02:28:18;;;;;;;5.30;4.90;;;6.70;99.90;;;;;;5095367;28;20736;-85
2023/04/08 02:30:54;;;;;;;6.03;5.43;;;6.70;99.90;;;;;;5087288;28;20402;-83
2023/04/08 02:33:21;;;;;;;5.30;4.80;;;6.70;99.90;;;;;;5106470;28;20370;-84
2023/04/08 02:35:49;;;;;;;5.45;4.95;;;6.80;99.90;;;;;;5096368;28;20398;-84
2023/04/08 02:38:15;;;;;;;5.20;4.80;;;6.80;99.90;;;;;;5077470;28;20473;-84
2023/04/08 02:40:41;;;;;;;5.20;4.80;;;6.80;99.90;;;;;;5095462;28;20410;-83
2023/04/08 02:43:07;;;;;;;4.88;4.47;;;6.80;99.90;;;;;;5077038;28;20383;-85
2023/04/08 02:45:43;;;;;;;4.68;4.25;;;6.90;99.90;;;;;;5092462;28;20398;-84
2023/04/08 02:48:09;;;;;;;5.30;4.78;;;6.80;99.90;;;;;;5115954;28;20378;-84
2023/04/08 02:50:35;;;;;;;4.60;4.20;;;6.80;99.90;;;;;;5095230;28;20386;-83
2023/04/08 02:53:01;;;;;;;5.20;4.80;;;6.80;99.90;;;;;;5077449;28;20378;-85
2023/04/08 02:55:26;;;;;;;5.15;4.60;;;6.90;99.90;;;;;;5076646;28;20443;-84
2023/04/08 02:57:52;;;;;;;5.38;4.97;;;6.90;99.90;;;;;;5076735;28;20393;-83
2023/04/08 03:00:17;;;;;;;4.95;4.55;;;6.90;99.90;;;;;;5077647;28;20378;-83
2023/04/08 03:02:43;;;;;;;5.28;4.88;;;6.90;99.90;;;;;;5096140;28;20382;-84
2023/04/08 03:05:09;;;;;;;5.07;4.60;;;7.00;99.90;;;;;;5077277;28;20394;-84
2023/04/08 03:07:35;;;;;;;5.00;4.60;;;7.00;99.90;;;;;;5077482;28;20487;-84
2023/04/08 03:10:01;;;;;;;4.83;4.43;;;7.10;99.90;;;;;;5077861;28;20386;-85
2023/04/08 03:12:27;;;;;;;4.78;4.38;;;7.00;99.90;;;;;;5095373;28;20382;-84
2023/04/08 03:14:53;;;;;;;4.70;4.30;;;7.00;99.90;;;;;;5079221;28;20421;-83
2023/04/08 03:17:19;;;;;;;5.10;4.60;;;7.00;99.90;;;;;;5101161;28;20481;-84
2023/04/08 03:19:44;;;;;;;5.00;4.60;;;7.00;99.90;;;;;;5089655;28;20416;-83
2023/04/08 03:22:10;;;;;;;5.60;5.10;;;7.00;99.90;;;;;;5107408;28;20919;-83
2023/04/08 03:24:36;;;;;;;4.65;4.25;;;7.00;99.90;;;;;;5083033;28;20402;-83
2023/04/08 03:27:02;;;;;;;5.10;4.60;;;7.00;99.90;;;;;;5102411;28;20382;-84
2023/04/08 03:29:28;;;;;;;5.30;4.90;;;7.00;99.90;;;;;;5076525;28;20378;-84
2023/04/08 03:31:53;;;;;;;5.00;4.60;;;7.10;99.90;;;;;;5076360;28;20389;-83
2023/04/08 03:34:19;;;;;;;5.00;4.50;;;7.10;99.90;;;;;;5094466;28;20406;-83
2023/04/08 03:36:45;;;;;;;4.80;4.40;;;7.10;99.90;;;;;;5075757;28;20393;-82
2023/04/08 03:39:10;;;;;;;5.20;4.70;;;7.10;99.90;;;;;;5075523;28;20435;-84
2023/04/08 03:41:36;;;;;;;4.90;4.40;;;7.10;99.90;;;;;;5075522;28;20752;-83
2023/04/08 03:44:01;;;;;;;5.00;4.60;;;7.00;99.90;;;;;;5093417;28;20394;-83
2023/04/08 03:46:27;;;;;;;5.60;4.97;;;7.00;99.90;;;;;;5093694;28;20802;-83
2023/04/08 03:48:52;;;;;;;4.95;4.50;;;6.90;99.90;;;;;;5075137;28;20413;-84
2023/04/08 03:51:18;;;;;;;4.88;4.47;;;6.90;99.90;;;;;;5074236;28;20386;-84
2023/04/08 03:53:43;;;;;;;5.45;4.78;;;7.00;99.90;;;;;;5093153;28;20381;-83
2023/04/08 03:56:09;;;;;;;4.90;4.50;;;6.90;99.90;;;;;;5074699;28;20862;-84
2023/04/08 03:58:34;;;;;;;4.47;4.17;;;6.90;99.90;;;;;;5076280;28;20392;-83
2023/04/08 04:01:00;;;;;;;5.13;4.73;;;6.90;99.90;;;;;;5076028;28;20414;-84
2023/04/08 04:03:26;;;;;;;4.83;4.43;;;6.90;99.90;;;;;;5076880;28;20748;-83
2023/04/08 04:05:51;;;;;;;5.10;4.60;;;6.90;99.90;;;;;;5076746;28;20420;-82
2023/04/08 04:08:17;;;;;;;5.03;4.63;;;7.00;99.90;;;;;;5075849;28;21014;-84
2023/04/08 04:10:43;;;;;;;4.90;4.50;;;7.00;99.90;;;;;;5075373;28;20366;-83
2023/04/08 04:13:08;;;;;;;5.68;5.18;;;6.90;99.90;;;;;;5075358;28;20510;-83
2023/04/08 04:15:38;;;;;;;5.53;4.90;;;6.90;99.90;;;;;;5074462;28;20950;-83
2023/04/08 04:18:04;;;;;;;5.88;5.28;;;6.90;99.90;;;;;;5075952;28;20386;-84
2023/04/08 04:20:29;;;;;;;5.07;4.67;;;6.80;99.90;;;;;;5093536;28;20476;-84
2023/04/08 04:22:55;;;;;;;5.80;4.90;;;6.90;99.90;;;;;;5075180;28;20403;-84
2023/04/08 04:25:21;;;;;;;5.40;5.00;;;7.00;99.90;;;;;;5075161;28;20426;-83
2023/04/08 04:27:46;;;;;;;5.40;4.90;;;6.90;99.90;;;;;;5074935;28;20489;-84
2023/04/08 04:30:14;;;;;;;5.40;5.00;;;6.90;99.90;;;;;;5075338;28;20392;-84
2023/04/08 04:32:41;;;;;;;5.57;4.97;;;6.90;99.90;;;;;;5074989;28;20386;-84
2023/04/08 04:35:10;;;;;;;4.53;4.18;;;6.80;99.90;;;;;;5093998;28;20393;-83
2023/04/08 04:37:36;;;;;;;5.75;5.00;;;6.80;99.90;;;;;;5075163;28;20729;-84
2023/04/08 04:40:03;;;;;;;5.40;4.90;;;6.80;99.90;;;;;;5093129;28;20469;-84
2023/04/08 04:42:29;;;;;;;5.80;5.30;;;6.80;99.90;;;;;;5092935;28;20493;-83
2023/04/08 04:44:55;;;;;;;4.80;4.40;;;7.00;99.90;;;;;;5074908;28;20926;-83
2023/04/08 04:47:20;;;;;;;4.80;4.40;;;7.00;99.90;;;;;;5092718;28;20404;-84
2023/04/08 04:49:46;;;;;;;5.10;4.60;;;6.90;99.90;;;;;;5075060;28;20378;-84
2023/04/08 04:52:11;;;;;;;5.47;4.70;;;6.90;99.90;;;;;;5093457;28;20374;-83
2023/04/08 04:54:37;;;;;;;5.30;4.80;;;6.90;99.90;;;;;;5075277;28;20382;-83
2023/04/08 04:57:03;;;;;;;4.87;4.40;;;6.80;99.90;;;;;;5074698;28;20394;-84
2023/04/08 04:59:28;;;;;;;4.90;4.50;;;6.80;99.90;;;;;;5075146;28;20469;-84
2023/04/08 05:01:56;;;;;;;4.90;4.50;;;6.80;99.90;;;;;;5094016;28;20835;-85
2023/04/08 05:04:22;;;;;;;5.90;5.40;;;6.90;99.90;;;;;;5088072;28;20393;-85
2023/04/08 05:06:48;;;;;;;5.32;4.88;;;6.90;99.90;;;;;;5112415;28;20382;-84
2023/04/08 05:09:13;;;;;;;5.70;5.20;;;7.00;99.90;;;;;;5087798;28;20388;-84
2023/04/08 05:11:39;;;;;;;6.33;5.83;;;7.10;99.90;;;;;;5087292;28;20378;-85
2023/04/08 05:14:05;;;;;;;7.20;6.60;;;7.00;99.90;;;;;;5087040;28;20417;-85
2023/04/08 05:16:31;;;;;;;6.72;6.13;;;7.00;99.90;;;;;;5086330;28;20394;-85
2023/04/08 05:18:56;;;;;;;6.80;6.15;;;7.00;99.90;;;;;;5094227;28;20460;-83
2023/04/08 05:21:22;;;;;;;8.10;7.30;;;7.10;99.90;;;;;;5112620;27;20401;-84
2023/04/08 05:23:50;;;;;;;8.32;7.63;;;7.10;99.90;;;;;;5107598;28;20394;-83
2023/04/08 05:26:15;;;;;;;7.40;6.70;;;7.00;99.90;;;;;;5114712;28;20394;-81
2023/04/08 05:28:41;;;;;;;8.50;7.70;;;7.00;99.90;;;;;;5118695;27;20401;-84
2023/04/08 05:31:06;;;;;;;15.23;12.43;;;6.90;99.90;;;;;;5090008;28;20435;-85
2023/04/08 05:33:32;;;;;;;8.07;7.27;;;7.00;99.90;;;;;;5089786;28;20819;-84
2023/04/08 05:35:57;;;;;;;6.57;5.97;;;6.90;99.90;;;;;;5088868;28;20458;-84
2023/04/08 05:38:23;;;;;;;5.80;5.30;;;7.00;99.90;;;;;;5106638;28;20756;-85
2023/04/08 05:40:49;;;;;;;5.40;5.00;;;7.00;99.90;;;;;;5104916;28;20390;-85
2023/04/08 05:43:14;;;;;;;5.22;4.82;;;7.20;99.90;;;;;;5085260;28;20591;-83
2023/04/08 05:45:40;;;;;;;5.45;4.95;;;7.10;99.90;;;;;;5084076;28;20425;-84
2023/04/08 05:48:05;;;;;;;4.80;4.40;;;7.20;99.90;;;;;;5103779;28;20717;-83
2023/04/08 05:50:33;;;;;;;5.07;4.67;;;7.30;99.90;;;;;;5086173;28;20398;-83
2023/04/08 05:52:59;;;;;;;4.72;4.32;;;7.40;99.90;;;;;;5085920;28;20764;-84
2023/04/08 05:55:24;;;;;;;4.83;4.43;;;7.50;99.90;;;;;;5083970;28;20424;-85
2023/04/08 05:57:50;;;;;;;5.07;4.67;;;7.50;99.90;;;;;;5103149;28;21075;-85
2023/04/08 06:00:16;;;;;;;4.80;4.40;;;7.60;99.90;;;;;;5106919;28;20382;-86
2023/04/08 06:02:41;;;;;;;4.75;4.35;;;7.40;99.90;;;;;;5092037;28;20378;-84
2023/04/08 06:05:07;;;;;;;5.70;4.60;;;7.30;99.90;;;;;;5108670;28;20777;-84
2023/04/08 06:07:33;;;;;;;4.75;4.35;;;7.30;99.90;;;;;;5086229;28;20386;-83
2023/04/08 06:09:59;;;;;;;5.00;4.50;;;7.30;99.90;;;;;;5086633;28;20382;-85
2023/04/08 06:12:24;;;;;;;5.03;4.60;;;7.40;99.90;;;;;;5104239;28;20381;-85
2023/04/08 06:14:57;;;;;;;5.17;4.30;;;7.40;99.90;;;;;;5104026;28;20757;-83
2023/04/08 06:17:23;;;;;;;5.10;4.60;;;7.40;99.90;;;;;;5084509;28;20421;-84
2023/04/08 06:19:48;;;;;;;5.22;4.72;;;7.60;99.90;;;;;;5082986;28;20390;-84
2023/04/08 06:22:14;;;;;;;5.50;4.90;;;7.60;99.90;;;;;;5080559;28;20511;-84
2023/04/08 06:24:40;;;;;;;5.78;5.28;;;7.60;99.90;;;;;;5107789;28;20503;-84
2023/04/08 06:27:05;;;;;;;6.40;5.40;;;7.70;99.90;;;;;;5102758;28;20469;-85
2023/04/08 06:29:32;;;;;;;5.53;5.05;;;7.80;99.90;;;;;;5081227;28;20370;-84
2023/04/08 06:31:58;;;;;;;5.97;5.38;;;7.80;99.90;;;;;;5093164;28;20386;-83
2023/04/08 06:34:23;;;;;;;6.15;5.65;;;7.70;99.90;;;;;;5099006;28;20465;-84
2023/04/08 06:36:49;;;;;;;5.80;5.30;;;7.60;99.90;;;;;;5116722;28;20394;-83
2023/04/08 06:39:15;;;;;;;6.30;5.70;;;7.40;99.90;;;;;;5095870;28;20385;-84
2023/04/08 06:41:41;;;;;;;6.25;5.75;;;7.60;99.90;;;;;;5089174;28;20446;-84
2023/04/08 06:44:07;;;;;;;6.20;5.60;;;7.60;99.90;;;;;;5085227;28;20410;-84
2023/04/08 06:46:32;;;;;;;5.80;5.30;;;7.40;99.90;;;;;;5083840;28;20390;-84
2023/04/08 06:48:58;;;;;;;5.70;5.30;;;7.80;99.90;;;;;;5098759;28;20390;-84
2023/04/08 06:51:23;;;;;;;5.43;5.03;;;7.60;99.90;;;;;;5097988;28;20386;-84
2023/04/08 06:53:49;;;;;;;6.37;5.87;;;7.70;99.90;;;;;;5081953;28;20389;-84
2023/04/08 06:56:14;;;;;;;6.40;5.90;;;7.70;99.90;;;;;;5079072;28;20390;-84
2023/04/08 06:58:40;;;;;;;6.60;6.10;;;7.70;99.90;;;;;;5098859;28;20843;-85
2023/04/08 07:01:05;;;;;;;7.07;5.40;;;7.80;99.90;;;;;;5081140;28;20472;-84
2023/04/08 07:03:31;;;;;;;6.03;5.53;;;7.70;99.90;;;;;;5103598;28;20963;-83
2023/04/08 07:05:56;;;;;;;6.07;5.57;;;7.80;99.90;;;;;;5099851;28;20405;-83
2023/04/08 07:08:22;;;;;;;6.60;6.00;;;7.90;99.90;;;;;;5097794;28;20458;-84
2023/04/08 07:10:47;;;;;;;6.53;5.93;;;7.90;99.90;;;;;;5084489;28;20397;-85
2023/04/08 07:13:13;;;;;;;6.10;5.60;;;8.10;99.90;;;;;;5079390;28;20449;-84
2023/04/08 07:15:40;;;;;;;6.25;5.75;;;8.20;99.90;;;;;;5086433;28;20412;-82
2023/04/08 07:18:06;;;;;;;6.20;5.70;;;8.20;99.90;;;;;;5110490;28;20397;-84
2023/04/08 07:20:34;;;;;;;6.40;5.90;;;8.10;99.90;;;;;;5079410;28;20386;-84
2023/04/08 07:23:00;;;;;;;6.65;5.95;;;8.00;99.90;;;;;;5079333;28;20440;-84
2023/04/08 07:25:25;;;;;;;6.40;5.80;;;8.20;99.90;;;;;;5097044;28;20417;-84
2023/04/08 07:27:51;;;;;;;6.15;5.60;;;8.30;99.90;;;;;;5096446;28;20523;-84
2023/04/08 07:30:17;;;;;;;6.68;6.07;;;8.20;99.90;;;;;;5095643;28;20420;-85
2023/04/08 07:32:43;;;;;;;6.90;6.20;;;8.30;99.90;;;;;;5099596;28;20378;-84
2023/04/08 07:35:08;;;;;;;6.75;6.15;;;8.50;99.90;;;;;;5098450;28;20390;-84
2023/04/08 07:37:34;;;;;;;6.78;6.20;;;8.30;99.90;;;;;;5097823;28;20416;-82
2023/04/08 07:40:00;;;;;;;7.13;6.33;;;8.50;99.90;;;;;;5098781;28;20397;-83
2023/04/08 07:42:26;;;;;;;6.40;5.90;;;8.60;99.90;;;;;;5095586;28;20386;-83
2023/04/08 07:44:51;;;;;;;6.85;6.15;;;8.70;99.90;;;;;;5097561;28;20412;-82
2023/04/08 07:47:17;;;;;;;6.07;5.57;;;8.80;99.90;;;;;;5077587;28;20931;-83
2023/04/08 07:49:45;;;;;;;6.78;6.18;;;8.60;99.90;;;;;;5077612;28;20884;-83
2023/04/08 07:52:11;;;;;;;7.05;6.35;;;8.80;99.90;;;;;;5076276;28;20386;-83
2023/04/08 07:54:36;;;;;;;7.10;6.40;;;9.00;99.90;;;;;;5075573;28;20388;-84
2023/04/08 07:57:02;;;;;;;7.50;6.90;;;9.00;99.90;;;;;;5093835;28;20463;-83
2023/04/08 07:59:28;;;;;;;7.30;6.70;;;9.10;99.90;;;;;;5075858;28;20816;-84
2023/04/08 08:01:54;;;;;;;7.30;6.80;;;9.10;99.90;;;;;;5094411;28;20418;-83
2023/04/08 08:04:19;;;;;;;8.05;7.35;;;9.30;99.90;;;;;;5078138;28;20399;-84
2023/04/08 08:06:46;;;;;;;8.25;7.55;;;9.40;99.90;;;;;;5078166;28;20904;-84
2023/04/08 08:09:12;;;;;;;7.90;7.20;;;9.40;99.90;;;;;;5097501;28;20378;-84
2023/04/08 08:11:38;;;;;;;8.20;7.50;;;9.50;99.90;;;;;;5097107;28;20386;-83
2023/04/08 08:14:03;;;;;;;7.60;6.90;;;9.40;99.90;;;;;;5082760;28;20382;-85
2023/04/08 08:16:30;;;;;;;8.53;7.80;;;9.30;99.90;;;;;;5091803;22;20530;-88
2023/04/08 08:18:56;;;;;;;9.30;8.40;;;9.50;99.90;;;;;;5072354;28;20384;-89
2023/04/08 08:21:22;;;;;;;7.87;7.17;;;10.00;99.90;;;;;;5073207;28;20913;-89
2023/04/08 08:23:48;;;;;;;7.68;6.97;;;9.40;99.90;;;;;;5073537;28;20745;-90
2023/04/08 08:26:13;;;;;;;7.47;6.70;;;9.10;99.90;;;;;;5073600;28;20410;-89
2023/04/08 08:28:39;;;;;;;7.33;6.63;;;9.30;99.90;;;;;;5073605;28;20474;-90
2023/04/08 08:31:05;;;;;;;8.40;7.57;;;10.10;99.90;;;;;;5073961;28;20516;-90
2023/04/08 08:33:31;;;;;;;8.38;7.68;;;9.60;99.90;;;;;;5073196;28;20952;-90
2023/04/08 08:35:57;;;;;;;9.30;8.50;;;9.90;99.90;;;;;;5071742;28;20379;-89
2023/04/08 08:38:23;;;;;;;8.98;8.02;;;9.70;99.90;;;;;;5074181;28;20932;-91
2023/04/08 08:40:59;;;;;;;10.00;8.20;;;9.60;99.90;;;;;;5074014;28;20374;-90
2023/04/08 08:43:26;;;;;;;9.32;8.52;;;9.70;99.90;;;;;;5073625;28;20391;-90
2023/04/08 08:45:53;;;;;;;9.50;8.60;;;10.10;99.90;;;;;;5074128;28;20410;-90
2023/04/08 08:48:19;;;;;;;8.35;7.60;;;9.90;99.90;;;;;;5097006;28;20419;-91
2023/04/08 08:50:45;;;;;;;8.47;7.70;;;10.00;99.90;;;;;;5096986;28;20388;-90
2023/04/08 08:53:11;;;;;;;8.73;7.93;;;9.80;99.90;;;;;;5089790;28;20410;-90
2023/04/08 08:55:38;;;;;;;7.97;7.28;;;10.10;99.90;;;;;;5073247;28;20376;-90
2023/04/08 08:58:06;;;;;;;8.60;7.78;;;9.80;99.90;;;;;;5074361;28;20402;-90
2023/04/08 09:00:41;;;;;;;7.80;7.10;;;10.30;99.90;;;;;;5075768;28;20388;-91
2023/04/08 09:03:18;;;;;;;7.40;6.80;;;10.10;99.90;;;;;;5074459;28;20384;-91
2023/04/08 09:05:54;;;;;;;8.18;7.47;;;10.30;99.90;;;;;;5073975;28;20433;-91
2023/04/08 09:08:34;;;;;;;7.93;7.00;;;9.90;99.90;;;;;;5075176;28;20379;-91
2023/04/08 09:11:22;;;;;;;8.25;7.45;;;10.10;99.90;;;;;;5073988;28;20425;-91
2023/04/08 09:13:48;;;;;;;9.80;7.50;;;9.80;99.90;;;;;;5074973;28;20376;-90
2023/04/08 09:16:18;;;;;;;7.82;7.07;;;10.10;99.90;;;;;;5074242;28;20423;-91
2023/04/08 09:18:46;;;;;;;7.85;7.05;;;10.20;99.90;;;;;;5075162;28;20392;-91
2023/04/08 09:21:12;;;;;;;7.35;6.65;;;10.80;99.90;;;;;;5075981;28;20774;-90
2023/04/08 09:23:48;;;;;;;7.38;6.68;;;11.90;99.90;;;;;;5076371;28;20383;-90
2023/04/08 09:26:16;;;;;;;7.38;6.68;;;10.50;99.90;;;;;;5121428;22;21086;-89
2023/04/08 09:28:43;;;;;;;8.60;7.40;;;10.20;99.90;;;;;;5088186;28;20465;-91
2023/04/08 09:31:20;;;;;;;9.20;7.00;;;10.40;99.90;;;;;;5084891;28;20442;-90
2023/04/08 09:33:47;;;;;;;8.10;7.30;;;10.60;99.90;;;;;;5090348;28;20376;-91
2023/04/08 09:36:14;;;;;;;8.90;8.00;;;10.90;99.90;;;;;;5097363;28;20412;-91
2023/04/08 09:38:40;;;;;;;8.60;7.80;;;10.30;99.90;;;;;;5094675;28;20397;-91
2023/04/08 09:41:10;;;;;;;7.93;7.17;;;10.10;99.90;;;;;;5094027;28;20760;-90
2023/04/08 09:43:48;;;;;;;8.25;7.45;;;10.30;99.90;;;;;;5093246;28;20752;-91
2023/04/08 09:46:53;;;;;;;7.60;6.90;;;10.50;99.90;;;;;;5099665;28;20465;-91
2023/04/08 09:49:43;;;;;;;7.68;6.97;;;10.60;99.90;;;;;;5077348;28;20471;-89
2023/04/08 10:03:33;;;;;;;7.00;6.30;;;10.40;99.90;;;;;;5397180;22;20520;-88
2023/04/08 10:06:01;;;;;;;6.45;5.88;;;10.00;99.90;;;;;;5095482;28;20451;-89
2023/04/08 10:08:26;;;;;;;6.88;6.28;;;11.00;99.90;;;;;;5078003;28;20383;-89
2023/04/08 10:10:54;;;;;;;7.03;6.32;;;10.70;99.90;;;;;;5077654;28;20550;-89
2023/04/08 10:13:20;;;;;;;7.00;6.30;;;11.10;99.90;;;;;;5076574;28;20413;-90
2023/04/08 10:15:46;;;;;;;7.00;6.30;;;10.80;99.90;;;;;;5076508;28;20471;-90
2023/04/08 10:18:13;;;;;;;6.78;6.18;;;10.40;99.90;;;;;;5077645;28;20388;-89
2023/04/08 10:20:38;;;;;;;6.10;5.50;;;10.50;99.90;;;;;;5077105;28;20430;-90
2023/04/08 10:23:06;;;;;;;6.57;5.97;;;10.40;99.90;;;;;;5078380;28;20392;-90
2023/04/08 10:25:33;;;;;;;8.07;6.20;;;10.40;99.90;;;;;;5076811;28;20457;-90
2023/04/08 10:28:11;;;;;;;7.03;6.30;;;10.30;99.90;;;;;;5076989;28;20395;-90
2023/04/08 10:30:56;;;;;;;7.05;6.35;;;10.30;99.90;;;;;;5076633;28;20874;-91
2023/04/08 10:33:33;;;;;;;7.18;6.47;;;10.00;99.90;;;;;;5078006;28;20380;-90
2023/04/08 10:36:05;;;;;;;7.78;6.93;;;10.60;99.90;;;;;;5078076;28;20471;-91
2023/04/08 10:38:31;;;;;;;7.07;6.37;;;9.60;99.90;;;;;;5078065;28;20414;-90
2023/04/08 10:40:57;;;;;;;7.90;7.10;;;9.40;99.90;;;;;;5079785;28;20387;-91
2023/04/08 10:43:23;;;;;;;7.47;6.77;;;10.00;99.90;;;;;;5101662;28;20398;-90
2023/04/08 10:45:51;;;;;;;7.70;7.00;;;9.70;99.90;;;;;;5101311;28;20407;-90
2023/04/08 10:48:24;;;;;;;8.85;7.95;;;10.20;99.90;;;;;;5118671;28;20465;-91
2023/04/08 10:50:59;;;;;;;9.52;7.82;;;9.80;99.90;;;;;;5109422;28;20384;-89
2023/04/08 10:53:29;;;;;;;8.93;8.13;;;10.00;99.90;;;;;;5111188;28;20382;-90
2023/04/08 10:56:13;;;;;;;9.73;8.83;;;10.10;99.90;;;;;;5078785;28;20380;-89
2023/04/08 10:58:55;;;;;;;9.02;8.05;;;10.20;99.90;;;;;;5085207;28;20388;-90
2023/04/08 11:01:21;;;;;;;10.30;8.90;;;;;;;;;;5070529;28;20394;-91
2023/04/08 11:03:47;;;;;;;9.67;8.77;;;10.60;99.90;;;;;;5067128;28;20454;-79
2023/04/08 11:06:13;;;;;;;9.43;8.43;;;10.10;99.90;;;;;;5064234;28;20435;-81
2023/04/08 11:08:39;;;;;;;11.90;9.37;;;10.30;99.90;;;;;;5066572;28;20466;-79
2023/04/08 11:11:09;;;;;;;10.50;9.50;;;11.00;99.90;;;;;;5069565;28;20390;-78
2023/04/08 11:13:40;;;;;;;9.60;8.45;;;11.10;99.90;;;;;;5084984;28;20413;-79
2023/04/08 11:16:10;;;;;;;10.25;9.18;;;10.90;99.90;;;;;;5070353;28;20488;-78
2023/04/08 11:18:38;;;;;;;9.77;8.88;;;11.00;99.90;;;;;;5051072;28;20405;-78
2023/04/08 11:21:08;;;;;;;10.05;8.80;;;11.10;99.90;;;;;;5067471;28;20391;-79
2023/04/08 11:23:35;;;;;;;9.20;8.30;;;11.70;99.90;;;;;;5074943;28;20395;-80
2023/04/08 11:26:01;;;;;;;8.40;7.50;;;12.30;99.90;;;;;;5058408;28;20413;-80
2023/04/08 11:28:27;;;;;;;9.02;8.07;;;12.80;99.90;;;;;;5056959;28;20426;-80
2023/04/08 11:30:54;;;;;;;9.60;8.60;;;12.90;99.90;;;;;;5073035;28;20395;-80
2023/04/08 11:33:20;;;;;;;8.80;7.90;;;13.70;91.20;;;;;;5073311;28;20742;-81
2023/04/08 11:35:49;;;;;;;9.40;8.50;;;13.50;99.90;;;;;;5083823;28;20909;-80
2023/04/08 11:38:14;;;;;;;8.17;7.47;;;14.00;99.90;;;;;;5089144;28;20471;-79
2023/04/08 11:40:55;;;;;;;7.90;7.10;;;14.50;73.80;;;;;;5091823;28;20394;-79
2023/04/08 11:43:21;;;;;;;7.88;7.13;;;14.00;73.10;;;;;;5090764;28;20412;-79
2023/04/08 11:45:47;;;;;;;8.73;7.93;;;12.80;87.60;;;;;;5092762;28;20406;-81
2023/04/08 11:48:14;;;;;;;8.13;7.32;;;12.80;82.10;;;;;;5092700;28;20491;-79
2023/04/08 11:50:41;;;;;;;8.02;7.32;;;12.40;88.60;;;;;;5093140;28;20909;-80
2023/04/08 11:53:20;;;;;;;8.27;7.47;;;13.10;98.20;;;;;;5092139;28;20411;-80
2023/04/08 11:55:47;;;;;;;7.20;6.50;;;12.40;85.30;;;;;;5084892;28;20392;-80
2023/04/08 11:58:13;;;;;;;7.07;6.38;;;12.10;83.80;;;;;;5071736;28;20388;-80
2023/04/08 12:00:39;;;;;;;7.90;7.10;;;12.00;76.80;;;;;;5089270;28;20496;-79
2023/04/08 12:03:05;;;;;;;7.15;6.45;;;12.10;83.70;;;;;;5092565;28;20452;-79
2023/04/08 12:05:30;;;;;;;7.80;7.10;;;11.70;99.90;;;;;;5084613;28;20396;-79
2023/04/08 12:07:56;;;;;;;7.43;6.73;;;11.90;99.90;;;;;;5069147;28;20417;-79
2023/04/08 12:10:24;;;;;;;7.05;6.38;;;11.90;91.90;;;;;;5094162;28;20441;-79
2023/04/08 12:12:49;;;;;;;8.00;7.20;;;11.90;93.80;;;;;;5090344;28;20443;-79
2023/04/08 12:15:15;;;;;;;8.20;7.40;;;11.80;94.80;;;;;;5087058;28;20910;-80
2023/04/08 12:17:42;;;;;;;8.30;7.50;;;11.80;99.90;;;;;;5088630;28;20410;-80
2023/04/08 12:20:08;;;;;;;7.68;7.05;;;11.70;99.90;;;;;;5078491;28;20378;-80
2023/04/08 12:22:34;;;;;;;8.02;7.22;;;11.60;99.90;;;;;;5083149;28;20919;-80
2023/04/08 12:25:02;;;;;;;7.60;6.60;;;11.70;99.90;;;;;;5085456;28;20397;-80
2023/04/08 12:27:27;;;;;;;8.18;7.38;;;11.90;99.90;;;;;;5082900;28;20391;-79
2023/04/08 12:29:54;;;;;;;7.95;7.15;;;12.10;97.60;;;;;;5094877;28;20375;-80
2023/04/08 12:32:20;;;;;;;8.37;7.57;;;12.20;91.70;;;;;;5079586;28;20550;-80
2023/04/08 12:34:46;;;;;;;7.78;7.07;;;11.90;93.90;;;;;;5084091;28;20390;-80
2023/04/08 12:37:11;;;;;;;6.60;6.00;;;11.80;96.70;;;;;;5085029;28;20382;-80
2023/04/08 12:39:37;;;;;;;6.90;6.30;;;11.90;98.70;;;;;;5075773;28;20379;-80
2023/04/08 12:42:03;;;;;;;7.30;6.60;;;12.00;92.60;;;;;;5088375;28;20388;-80
2023/04/08 12:44:29;;;;;;;6.70;6.10;;;12.10;94.00;;;;;;5080586;28;20477;-80
2023/04/08 12:46:57;;;;;;;6.30;5.70;;;12.10;89.50;;;;;;5081034;28;20494;-80
2023/04/08 12:49:23;;;;;;;6.40;5.80;;;12.50;85.00;;;;;;5087729;28;20469;-80
2023/04/08 12:51:49;;;;;;;5.45;4.95;;;12.70;67.40;;;;;;5089075;28;20937;-80
2023/04/08 12:54:15;;;;;;;5.15;4.65;;;13.00;57.10;;;;;;5078919;28;20388;-80
2023/04/08 12:56:42;;;;;;;5.10;4.70;;;13.30;53.20;;;;;;5082581;28;20388;-79
2023/04/08 12:59:08;;;;;;;5.93;4.97;;;13.60;48.40;;;;;;5085624;28;20725;-80
2023/04/08 13:01:33;;;;;;;4.80;4.30;;;14.00;48.20;;;;;;5075841;28;20445;-79
2023/04/08 13:03:59;;;;;;;5.17;4.70;;;15.30;34.30;;;;;;5087096;28;20403;-80
2023/04/08 13:06:25;;;;;;;4.83;4.33;;;14.40;35.30;;;;;;5079187;28;20515;-79
2023/04/08 13:08:51;;;;;;;4.50;4.10;;;13.60;36.50;;;;;;5081673;28;20392;-79
2023/04/08 13:11:16;;;;;;;3.90;3.60;;;13.30;37.60;;;;;;5085619;28;20386;-79
2023/04/08 13:13:42;;;;;;;3.70;3.40;;;12.90;39.40;;;;;;5074239;28;20387;-79
2023/04/08 13:16:08;;;;;;;3.70;3.40;;;12.70;41.70;;;;;;5086663;28;20443;-79